Capitol Logistics 978


HKJK
Jomo Kenyatta International Airport
Nairobi, KE
HTZA
Abeid Amani Karume International Airport
Zanzibar, TZ

Activity Log

Date Flight Route Aircraft Duration
12/19/2019 CPX978 ATUD1D UVOVA GABSO UL445 GEREN B763 1h 12m
11/12/2019 CPX978 Not Available B763 1h 01m

Route Details

Aircraft Information
Primary: Boeing 767-300BDSF
Backup: Not Available
Route Data
Distance: 323nm
Sched. Duration: 0h 45m
Avg. Duration: 1h 06m (+62m)
Times Flown: 2
Recm'd Route: Not Available
Planned Altitude: 31,000ft
Origin Wx: HKJK 281030Z 06014KT 9999 BKN029 25/15 Q1021 NOSIG
Dest. Wx: HTZA 281000Z 31005KT 9999 FEW009 BKN016 FEW018CB 31/25 Q1011 NOSIG
Notes:

Financial History
Total Freight: 170,174lbs
Average Load: 85,087lbs/flt
Fuel Used: 21,947lbs
Avg. Fuel Used: 10,974lbs/flt
Fuel Expense: $18,435
Avg. Fuel Expense: $9,218
Avg. Fuel Cost: $0.84/lbs
Total Gross Income: $1,671,109
Pilot Pay: $468
Total Expenses: $180,584
Total Revenue: $1,471,588
Average Revenue: $835,554.34